sensor_id;sensor_type;location;lat;lon;timestamp;pressure;altitude;pressure_sealevel;temperature;humidity
4044;BME280;2036;51.578;7.108;2022-07-29T00:01:34;100845.97;;;19.26;88.35
4044;BME280;2036;51.578;7.108;2022-07-29T00:03:59;100844.47;;;19.23;89.34
4044;BME280;2036;51.578;7.108;2022-07-29T00:06:28;100840.81;;;19.24;87.50
4044;BME280;2036;51.578;7.108;2022-07-29T00:08:54;100842.13;;;19.20;89.43
4044;BME280;2036;51.578;7.108;2022-07-29T00:11:20;100830.63;;;19.20;88.52
4044;BME280;2036;51.578;7.108;2022-07-29T00:13:46;100839.63;;;19.19;87.72
4044;BME280;2036;51.578;7.108;2022-07-29T00:16:12;100834.31;;;19.19;87.75
4044;BME280;2036;51.578;7.108;2022-07-29T00:18:38;100838.31;;;19.15;88.98
4044;BME280;2036;51.578;7.108;2022-07-29T00:21:04;100837.47;;;19.14;89.76
4044;BME280;2036;51.578;7.108;2022-07-29T00:23:30;100842.28;;;19.10;89.64
4044;BME280;2036;51.578;7.108;2022-07-29T00:25:56;100839.47;;;19.12;88.94
4044;BME280;2036;51.578;7.108;2022-07-29T00:28:22;100830.97;;;19.08;88.15
4044;BME280;2036;51.578;7.108;2022-07-29T00:30:47;100834.47;;;19.09;88.70
4044;BME280;2036;51.578;7.108;2022-07-29T00:33:14;100831.66;;;19.10;85.54
4044;BME280;2036;51.578;7.108;2022-07-29T00:35:40;100827.34;;;19.09;86.15
4044;BME280;2036;51.578;7.108;2022-07-29T00:38:17;100827.66;;;19.06;89.84
4044;BME280;2036;51.578;7.108;2022-07-29T00:40:44;100824.50;;;19.03;89.85
4044;BME280;2036;51.578;7.108;2022-07-29T00:43:11;100826.47;;;19.01;90.93
4044;BME280;2036;51.578;7.108;2022-07-29T00:45:38;100819.19;;;19.03;88.95
4044;BME280;2036;51.578;7.108;2022-07-29T00:48:05;100815.69;;;19.02;88.16
4044;BME280;2036;51.578;7.108;2022-07-29T00:50:31;100808.53;;;18.95;91.71
4044;BME280;2036;51.578;7.108;2022-07-29T00:52:58;100793.75;;;18.92;90.13
4044;BME280;2036;51.578;7.108;2022-07-29T00:55:24;100800.22;;;18.90;92.11
4044;BME280;2036;51.578;7.108;2022-07-29T00:57:50;100803.53;;;18.92;89.53
4044;BME280;2036;51.578;7.108;2022-07-29T01:00:22;100794.25;;;18.88;89.62
4044;BME280;2036;51.578;7.108;2022-07-29T01:02:49;100796.72;;;18.81;92.19
4044;BME280;2036;51.578;7.108;2022-07-29T01:05:18;100786.59;;;18.77;92.18
4044;BME280;2036;51.578;7.108;2022-07-29T01:07:46;100782.25;;;18.76;91.89
4044;BME280;2036;51.578;7.108;2022-07-29T01:10:14;100784.25;;;18.74;93.65
4044;BME280;2036;51.578;7.108;2022-07-29T01:12:42;100774.94;;;18.70;93.52
4044;BME280;2036;51.578;7.108;2022-07-29T01:15:09;100780.41;;;18.68;92.15
4044;BME280;2036;51.578;7.108;2022-07-29T01:18:14;100773.78;;;18.64;93.76
4044;BME280;2036;51.578;7.108;2022-07-29T01:21:34;100781.09;;;18.62;93.26
4044;BME280;2036;51.578;7.108;2022-07-29T01:24:23;100775.44;;;18.57;92.58
4044;BME280;2036;51.578;7.108;2022-07-29T01:29:59;100766.38;;;18.42;95.96
4044;BME280;2036;51.578;7.108;2022-07-29T01:32:29;100760.91;;;18.43;96.63
4044;BME280;2036;51.578;7.108;2022-07-29T01:37:52;100756.41;;;18.36;98.15
4044;BME280;2036;51.578;7.108;2022-07-29T01:40:43;100755.75;;;18.34;96.63
4044;BME280;2036;51.578;7.108;2022-07-29T01:43:17;100750.44;;;18.34;96.14
4044;BME280;2036;51.578;7.108;2022-07-29T01:45:56;100749.28;;;18.36;96.16
4044;BME280;2036;51.578;7.108;2022-07-29T01:48:36;100743.44;;;18.33;98.57
4044;BME280;2036;51.578;7.108;2022-07-29T01:51:33;100745.94;;;18.26;98.05
4044;BME280;2036;51.578;7.108;2022-07-29T01:54:21;100740.63;;;18.26;97.97
4044;BME280;2036;51.578;7.108;2022-07-29T01:56:55;100749.44;;;18.27;93.58
4044;BME280;2036;51.578;7.108;2022-07-29T01:59:23;100746.09;;;18.25;97.23
4044;BME280;2036;51.578;7.108;2022-07-29T02:01:54;100740.28;;;18.21;96.76
4044;BME280;2036;51.578;7.108;2022-07-29T02:04:23;100735.75;;;18.14;100.00
4044;BME280;2036;51.578;7.108;2022-07-29T02:06:53;100738.59;;;18.12;100.00
4044;BME280;2036;51.578;7.108;2022-07-29T02:09:21;100730.94;;;18.09;100.00
4044;BME280;2036;51.578;7.108;2022-07-29T02:11:52;100743.59;;;18.15;95.80
4044;BME280;2036;51.578;7.108;2022-07-29T02:14:21;100739.75;;;18.10;100.00
4044;BME280;2036;51.578;7.108;2022-07-29T02:16:52;100732.25;;;18.05;100.00
4044;BME280;2036;51.578;7.108;2022-07-29T02:19:22;100725.63;;;18.01;100.00
4044;BME280;2036;51.578;7.108;2022-07-29T02:21:52;100730.09;;;18.01;100.00
4044;BME280;2036;51.578;7.108;2022-07-29T02:24:20;100726.78;;;18.07;96.99
4044;BME280;2036;51.578;7.108;2022-07-29T02:26:49;100735.22;;;18.02;100.00
4044;BME280;2036;51.578;7.108;2022-07-29T02:29:18;100730.41;;;17.98;100.00
4044;BME280;2036;51.578;7.108;2022-07-29T02:31:45;100738.41;;;18.06;94.07
4044;BME280;2036;51.578;7.108;2022-07-29T02:34:13;100736.56;;;17.98;100.00
4044;BME280;2036;51.578;7.108;2022-07-29T02:36:42;100737.72;;;17.96;100.00
4044;BME280;2036;51.578;7.108;2022-07-29T02:39:12;100737.22;;;17.92;100.00
4044;BME280;2036;51.578;7.108;2022-07-29T02:41:48;100728.75;;;17.97;100.00
4044;BME280;2036;51.578;7.108;2022-07-29T02:44:19;100728.25;;;17.93;100.00
4044;BME280;2036;51.578;7.108;2022-07-29T02:47:18;100727.09;;;17.96;98.89
4044;BME280;2036;51.578;7.108;2022-07-29T02:50:04;100729.06;;;17.94;99.48
4044;BME280;2036;51.578;7.108;2022-07-29T02:53:25;100732.03;;;17.91;95.82
4044;BME280;2036;51.578;7.108;2022-07-29T02:55:58;100732.69;;;17.85;97.80
4044;BME280;2036;51.578;7.108;2022-07-29T02:58:30;100728.53;;;17.90;92.81
4044;BME280;2036;51.578;7.108;2022-07-29T03:01:04;100728.88;;;17.87;97.50
4044;BME280;2036;51.578;7.108;2022-07-29T03:03:39;100728.06;;;17.87;99.03
4044;BME280;2036;51.578;7.108;2022-07-29T03:06:06;100729.50;;;17.81;95.47
4044;BME280;2036;51.578;7.108;2022-07-29T03:08:34;100731.84;;;17.84;100.00
4044;BME280;2036;51.578;7.108;2022-07-29T03:11:01;100733.97;;;17.81;100.00
4044;BME280;2036;51.578;7.108;2022-07-29T03:13:29;100737.66;;;17.80;100.00
4044;BME280;2036;51.578;7.108;2022-07-29T03:15:57;100735.97;;;17.78;100.00
4044;BME280;2036;51.578;7.108;2022-07-29T03:18:24;100738.31;;;17.82;99.86
4044;BME280;2036;51.578;7.108;2022-07-29T03:20:51;100739.34;;;17.89;97.48
4044;BME280;2036;51.578;7.108;2022-07-29T03:23:21;100734.03;;;17.89;97.78
4044;BME280;2036;51.578;7.108;2022-07-29T03:25:50;100732.22;;;17.89;96.46
4044;BME280;2036;51.578;7.108;2022-07-29T03:28:16;100742.66;;;17.91;100.00
4044;BME280;2036;51.578;7.108;2022-07-29T03:30:41;100754.63;;;17.95;94.76
4044;BME280;2036;51.578;7.108;2022-07-29T03:33:07;100777.38;;;17.97;100.00
4044;BME280;2036;51.578;7.108;2022-07-29T03:35:33;100781.88;;;17.97;100.00
4044;BME280;2036;51.578;7.108;2022-07-29T03:37:59;100780.03;;;17.97;98.88
4044;BME280;2036;51.578;7.108;2022-07-29T03:40:52;100771.72;;;17.92;100.00
4044;BME280;2036;51.578;7.108;2022-07-29T03:43:19;100770.56;;;17.95;100.00
4044;BME280;2036;51.578;7.108;2022-07-29T03:45:51;100776.38;;;17.98;100.00
4044;BME280;2036;51.578;7.108;2022-07-29T03:48:22;100774.56;;;17.99;97.05
4044;BME280;2036;51.578;7.108;2022-07-29T03:50:50;100778.38;;;17.96;100.00
4044;BME280;2036;51.578;7.108;2022-07-29T03:53:17;100760.47;;;17.98;94.70
4044;BME280;2036;51.578;7.108;2022-07-29T03:55:48;100756.97;;;17.98;100.00
4044;BME280;2036;51.578;7.108;2022-07-29T03:58:16;100767.59;;;17.98;98.20
4044;BME280;2036;51.578;7.108;2022-07-29T04:00:44;100783.69;;;17.96;97.63
4044;BME280;2036;51.578;7.108;2022-07-29T04:03:10;100786.34;;;17.96;100.00
4044;BME280;2036;51.578;7.108;2022-07-29T04:05:36;100778.22;;;17.98;100.00
4044;BME280;2036;51.578;7.108;2022-07-29T04:08:02;100754.16;;;17.99;98.66
4044;BME280;2036;51.578;7.108;2022-07-29T04:10:28;100764.94;;;17.98;100.00
4044;BME280;2036;51.578;7.108;2022-07-29T04:12:54;100782.69;;;17.97;98.47
4044;BME280;2036;51.578;7.108;2022-07-29T04:15:38;100787.50;;;17.94;100.00
4044;BME280;2036;51.578;7.108;2022-07-29T04:18:04;100786.34;;;17.96;100.00
4044;BME280;2036;51.578;7.108;2022-07-29T04:20:31;100779.00;;;17.90;100.00
4044;BME280;2036;51.578;7.108;2022-07-29T04:22:57;100795.47;;;17.94;100.00
4044;BME280;2036;51.578;7.108;2022-07-29T04:25:22;100811.88;;;17.89;100.00
4044;BME280;2036;51.578;7.108;2022-07-29T04:27:48;100818.81;;;17.90;100.00
4044;BME280;2036;51.578;7.108;2022-07-29T04:30:27;100820.81;;;17.88;100.00
4044;BME280;2036;51.578;7.108;2022-07-29T04:32:53;100833.41;;;17.86;100.00
4044;BME280;2036;51.578;7.108;2022-07-29T04:35:20;100839.03;;;17.83;100.00
4044;BME280;2036;51.578;7.108;2022-07-29T04:37:47;100847.84;;;17.84;100.00
4044;BME280;2036;51.578;7.108;2022-07-29T04:40:13;100839.84;;;17.75;100.00
4044;BME280;2036;51.578;7.108;2022-07-29T04:42:39;100837.69;;;17.79;100.00
4044;BME280;2036;51.578;7.108;2022-07-29T04:45:06;100839.50;;;17.78;98.70
4044;BME280;2036;51.578;7.108;2022-07-29T04:47:31;100831.41;;;17.80;100.00
4044;BME280;2036;51.578;7.108;2022-07-29T04:49:57;100830.72;;;17.78;100.00
4044;BME280;2036;51.578;7.108;2022-07-29T04:52:24;100826.78;;;17.82;100.00
4044;BME280;2036;51.578;7.108;2022-07-29T04:54:49;100835.72;;;17.81;100.00
4044;BME280;2036;51.578;7.108;2022-07-29T04:57:15;100823.44;;;17.80;100.00
4044;BME280;2036;51.578;7.108;2022-07-29T04:59:41;100806.69;;;17.80;100.00
4044;BME280;2036;51.578;7.108;2022-07-29T05:02:07;100805.47;;;17.74;100.00
4044;BME280;2036;51.578;7.108;2022-07-29T05:04:33;100795.53;;;17.76;100.00
4044;BME280;2036;51.578;7.108;2022-07-29T05:06:59;100803.34;;;17.77;100.00
4044;BME280;2036;51.578;7.108;2022-07-29T05:09:25;100809.81;;;17.75;100.00
4044;BME280;2036;51.578;7.108;2022-07-29T05:11:51;100809.94;;;17.73;100.00
4044;BME280;2036;51.578;7.108;2022-07-29T05:14:17;100789.41;;;17.75;100.00
4044;BME280;2036;51.578;7.108;2022-07-29T05:16:43;100798.66;;;17.71;100.00
4044;BME280;2036;51.578;7.108;2022-07-29T05:19:09;100802.81;;;17.74;100.00
4044;BME280;2036;51.578;7.108;2022-07-29T05:21:36;100802.50;;;17.77;100.00
4044;BME280;2036;51.578;7.108;2022-07-29T05:24:02;100803.97;;;17.71;100.00
4044;BME280;2036;51.578;7.108;2022-07-29T05:26:28;100815.41;;;17.72;100.00
4044;BME280;2036;51.578;7.108;2022-07-29T05:28:54;100813.25;;;17.67;100.00
4044;BME280;2036;51.578;7.108;2022-07-29T05:31:20;100806.63;;;17.71;100.00
4044;BME280;2036;51.578;7.108;2022-07-29T05:33:46;100801.16;;;17.73;100.00
4044;BME280;2036;51.578;7.108;2022-07-29T05:36:12;100798.34;;;17.74;100.00
4044;BME280;2036;51.578;7.108;2022-07-29T05:38:38;100801.97;;;17.73;100.00
4044;BME280;2036;51.578;7.108;2022-07-29T05:41:04;100806.63;;;17.71;100.00
4044;BME280;2036;51.578;7.108;2022-07-29T05:43:31;100806.47;;;17.73;100.00
4044;BME280;2036;51.578;7.108;2022-07-29T05:45:57;100809.78;;;17.49;100.00
4044;BME280;2036;51.578;7.108;2022-07-29T05:48:24;100808.34;;;17.55;100.00
4044;BME280;2036;51.578;7.108;2022-07-29T05:50:50;100801.94;;;17.65;100.00
4044;BME280;2036;51.578;7.108;2022-07-29T05:53:16;100803.16;;;17.71;100.00
4044;BME280;2036;51.578;7.108;2022-07-29T05:55:42;100806.31;;;17.74;100.00
4044;BME280;2036;51.578;7.108;2022-07-29T05:58:08;100818.75;;;17.74;100.00
4044;BME280;2036;51.578;7.108;2022-07-29T06:00:34;100806.13;;;17.76;100.00
4044;BME280;2036;51.578;7.108;2022-07-29T06:03:00;100820.16;;;17.60;100.00
4044;BME280;2036;51.578;7.108;2022-07-29T06:05:27;100811.44;;;17.50;100.00
4044;BME280;2036;51.578;7.108;2022-07-29T06:07:53;100799.91;;;17.59;100.00
4044;BME280;2036;51.578;7.108;2022-07-29T06:10:18;100801.31;;;17.71;100.00
4044;BME280;2036;51.578;7.108;2022-07-29T06:12:44;100799.00;;;17.76;100.00
4044;BME280;2036;51.578;7.108;2022-07-29T06:15:10;100792.75;;;17.86;100.00
4044;BME280;2036;51.578;7.108;2022-07-29T06:17:36;100783.03;;;17.94;100.00
4044;BME280;2036;51.578;7.108;2022-07-29T06:20:03;100783.22;;;18.01;100.00
4044;BME280;2036;51.578;7.108;2022-07-29T06:22:30;100791.53;;;18.06;100.00
4044;BME280;2036;51.578;7.108;2022-07-29T06:24:56;100784.91;;;18.10;100.00
4044;BME280;2036;51.578;7.108;2022-07-29T06:27:22;100795.03;;;18.14;100.00
4044;BME280;2036;51.578;7.108;2022-07-29T06:29:48;100789.41;;;18.25;100.00
4044;BME280;2036;51.578;7.108;2022-07-29T06:32:14;100785.97;;;18.33;100.00
4044;BME280;2036;51.578;7.108;2022-07-29T06:34:40;100786.75;;;18.25;100.00
4044;BME280;2036;51.578;7.108;2022-07-29T06:37:09;100777.94;;;18.17;100.00
4044;BME280;2036;51.578;7.108;2022-07-29T06:39:38;100782.59;;;18.15;100.00
4044;BME280;2036;51.578;7.108;2022-07-29T06:42:04;100777.94;;;18.09;100.00
4044;BME280;2036;51.578;7.108;2022-07-29T06:44:30;100775.19;;;17.93;100.00
4044;BME280;2036;51.578;7.108;2022-07-29T06:46:57;100773.50;;;17.84;100.00
4044;BME280;2036;51.578;7.108;2022-07-29T06:49:23;100775.66;;;17.80;100.00
4044;BME280;2036;51.578;7.108;2022-07-29T06:51:52;100779.56;;;17.68;100.00
4044;BME280;2036;51.578;7.108;2022-07-29T06:54:18;100790.47;;;17.57;100.00
4044;BME280;2036;51.578;7.108;2022-07-29T06:56:44;100791.28;;;17.57;100.00
4044;BME280;2036;51.578;7.108;2022-07-29T06:59:11;100797.00;;;17.45;100.00
4044;BME280;2036;51.578;7.108;2022-07-29T07:01:40;100806.69;;;17.54;100.00
4044;BME280;2036;51.578;7.108;2022-07-29T07:04:06;100807.44;;;17.64;100.00
4044;BME280;2036;51.578;7.108;2022-07-29T07:06:34;100819.00;;;17.89;100.00
4044;BME280;2036;51.578;7.108;2022-07-29T07:09:01;100829.03;;;18.03;100.00
4044;BME280;2036;51.578;7.108;2022-07-29T07:11:27;100823.91;;;18.09;100.00
4044;BME280;2036;51.578;7.108;2022-07-29T07:13:53;100833.59;;;18.26;100.00
4044;BME280;2036;51.578;7.108;2022-07-29T07:16:19;100843.13;;;18.37;100.00
4044;BME280;2036;51.578;7.108;2022-07-29T07:18:45;100839.53;;;18.54;100.00
4044;BME280;2036;51.578;7.108;2022-07-29T07:21:11;100841.56;;;18.68;100.00
4044;BME280;2036;51.578;7.108;2022-07-29T07:23:38;100845.56;;;18.64;100.00
4044;BME280;2036;51.578;7.108;2022-07-29T07:26:03;100845.06;;;18.69;100.00
4044;BME280;2036;51.578;7.108;2022-07-29T07:28:31;100844.56;;;18.65;100.00
4044;BME280;2036;51.578;7.108;2022-07-29T07:30:57;100846.28;;;18.90;100.00
4044;BME280;2036;51.578;7.108;2022-07-29T07:33:23;100852.25;;;19.08;100.00
4044;BME280;2036;51.578;7.108;2022-07-29T07:35:49;100848.97;;;19.15;100.00
4044;BME280;2036;51.578;7.108;2022-07-29T07:38:14;100843.63;;;19.31;100.00
4044;BME280;2036;51.578;7.108;2022-07-29T07:40:41;100851.97;;;19.36;100.00
4044;BME280;2036;51.578;7.108;2022-07-29T07:43:07;100845.81;;;19.51;100.00
4044;BME280;2036;51.578;7.108;2022-07-29T07:45:33;100846.28;;;19.55;100.00
4044;BME280;2036;51.578;7.108;2022-07-29T07:47:59;100860.59;;;19.78;100.00
4044;BME280;2036;51.578;7.108;2022-07-29T07:50:25;100868.69;;;19.93;100.00
4044;BME280;2036;51.578;7.108;2022-07-29T07:52:54;100865.81;;;20.10;100.00
4044;BME280;2036;51.578;7.108;2022-07-29T07:55:23;100866.16;;;20.07;100.00
4044;BME280;2036;51.578;7.108;2022-07-29T07:57:49;100868.50;;;20.02;100.00
4044;BME280;2036;51.578;7.108;2022-07-29T08:00:16;100859.84;;;20.08;100.00
4044;BME280;2036;51.578;7.108;2022-07-29T08:02:42;100867.50;;;20.11;100.00
4044;BME280;2036;51.578;7.108;2022-07-29T08:05:11;100869.31;;;20.03;100.00
4044;BME280;2036;51.578;7.108;2022-07-29T08:07:41;100866.50;;;20.04;100.00
4044;BME280;2036;51.578;7.108;2022-07-29T08:10:07;100866.31;;;20.22;100.00
4044;BME280;2036;51.578;7.108;2022-07-29T08:12:33;100866.44;;;20.20;100.00
4044;BME280;2036;51.578;7.108;2022-07-29T08:14:59;100864.81;;;20.11;100.00
4044;BME280;2036;51.578;7.108;2022-07-29T08:17:25;100862.88;;;19.97;100.00
4044;BME280;2036;51.578;7.108;2022-07-29T08:19:52;100864.13;;;20.17;100.00
4044;BME280;2036;51.578;7.108;2022-07-29T08:22:18;100869.41;;;20.33;100.00
4044;BME280;2036;51.578;7.108;2022-07-29T08:24:44;100884.56;;;20.41;100.00
4044;BME280;2036;51.578;7.108;2022-07-29T08:27:12;100876.69;;;20.48;100.00
4044;BME280;2036;51.578;7.108;2022-07-29T08:29:39;100881.28;;;20.62;100.00
4044;BME280;2036;51.578;7.108;2022-07-29T08:32:06;100876.22;;;20.75;100.00
4044;BME280;2036;51.578;7.108;2022-07-29T08:34:32;100875.50;;;20.81;100.00
4044;BME280;2036;51.578;7.108;2022-07-29T08:36:58;100869.22;;;20.96;100.00
4044;BME280;2036;51.578;7.108;2022-07-29T08:39:24;100880.53;;;21.06;100.00
4044;BME280;2036;51.578;7.108;2022-07-29T08:41:51;100866.63;;;21.19;100.00
4044;BME280;2036;51.578;7.108;2022-07-29T08:44:18;100871.72;;;21.29;100.00
4044;BME280;2036;51.578;7.108;2022-07-29T08:46:45;100876.25;;;21.20;100.00
4044;BME280;2036;51.578;7.108;2022-07-29T08:49:11;100876.09;;;21.22;100.00
4044;BME280;2036;51.578;7.108;2022-07-29T08:51:40;100871.06;;;21.27;100.00
4044;BME280;2036;51.578;7.108;2022-07-29T08:54:09;100864.50;;;21.29;100.00
4044;BME280;2036;51.578;7.108;2022-07-29T08:56:36;100868.41;;;21.27;100.00
4044;BME280;2036;51.578;7.108;2022-07-29T08:59:05;100862.88;;;21.28;100.00
4044;BME280;2036;51.578;7.108;2022-07-29T09:01:34;100863.06;;;21.27;100.00
4044;BME280;2036;51.578;7.108;2022-07-29T09:04:11;100863.16;;;21.33;100.00
4044;BME280;2036;51.578;7.108;2022-07-29T09:06:43;100858.81;;;21.32;100.00
4044;BME280;2036;51.578;7.108;2022-07-29T09:09:09;100865.94;;;21.40;100.00
4044;BME280;2036;51.578;7.108;2022-07-29T09:11:37;100857.09;;;21.39;100.00
4044;BME280;2036;51.578;7.108;2022-07-29T09:14:03;100862.91;;;21.43;100.00
4044;BME280;2036;51.578;7.108;2022-07-29T09:17:07;100860.25;;;21.43;100.00
4044;BME280;2036;51.578;7.108;2022-07-29T09:19:36;100858.56;;;21.42;100.00
4044;BME280;2036;51.578;7.108;2022-07-29T09:22:05;100869.06;;;21.43;100.00
4044;BME280;2036;51.578;7.108;2022-07-29T09:24:44;100871.72;;;21.43;100.00
4044;BME280;2036;51.578;7.108;2022-07-29T09:27:25;100876.31;;;21.35;100.00
4044;BME280;2036;51.578;7.108;2022-07-29T09:30:09;100877.84;;;21.29;100.00
4044;BME280;2036;51.578;7.108;2022-07-29T09:33:00;100874.09;;;21.24;100.00
4044;BME280;2036;51.578;7.108;2022-07-29T09:35:31;100881.38;;;21.07;100.00
4044;BME280;2036;51.578;7.108;2022-07-29T09:38:00;100884.69;;;21.01;100.00
4044;BME280;2036;51.578;7.108;2022-07-29T09:40:35;100882.22;;;20.99;100.00
4044;BME280;2036;51.578;7.108;2022-07-29T09:43:13;100878.41;;;20.94;100.00
4044;BME280;2036;51.578;7.108;2022-07-29T09:45:39;100870.41;;;20.94;100.00
4044;BME280;2036;51.578;7.108;2022-07-29T09:48:24;100872.13;;;20.87;100.00
4044;BME280;2036;51.578;7.108;2022-07-29T09:50:50;100861.97;;;20.82;100.00
4044;BME280;2036;51.578;7.108;2022-07-29T09:53:32;100859.84;;;20.78;100.00
4044;BME280;2036;51.578;7.108;2022-07-29T09:55:59;100852.56;;;20.72;100.00
4044;BME280;2036;51.578;7.108;2022-07-29T09:58:25;100843.09;;;20.61;100.00
4044;BME280;2036;51.578;7.108;2022-07-29T10:00:56;100830.31;;;20.57;100.00
4044;BME280;2036;51.578;7.108;2022-07-29T10:03:22;100818.03;;;20.48;100.00
4044;BME280;2036;51.578;7.108;2022-07-29T10:06:09;100805.41;;;20.41;100.00
4044;BME280;2036;51.578;7.108;2022-07-29T10:08:37;100804.91;;;20.38;100.00
4044;BME280;2036;51.578;7.108;2022-07-29T10:11:17;100818.13;;;20.23;100.00
4044;BME280;2036;51.578;7.108;2022-07-29T10:13:46;100837.63;;;20.24;100.00
4044;BME280;2036;51.578;7.108;2022-07-29T10:16:14;100836.31;;;20.20;100.00
4044;BME280;2036;51.578;7.108;2022-07-29T10:18:42;100835.50;;;20.11;100.00
4044;BME280;2036;51.578;7.108;2022-07-29T10:21:09;100826.84;;;20.09;100.00
4044;BME280;2036;51.578;7.108;2022-07-29T10:23:36;100820.50;;;20.10;100.00
4044;BME280;2036;51.578;7.108;2022-07-29T10:26:04;100821.22;;;20.04;100.00
4044;BME280;2036;51.578;7.108;2022-07-29T10:28:33;100820.44;;;19.88;100.00
4044;BME280;2036;51.578;7.108;2022-07-29T10:31:06;100830.91;;;19.81;100.00
4044;BME280;2036;51.578;7.108;2022-07-29T10:40:33;100840.78;;;19.32;100.00
4044;BME280;2036;51.578;7.108;2022-07-29T10:43:31;100839.28;;;19.30;100.00
4044;BME280;2036;51.578;7.108;2022-07-29T10:46:02;100840.78;;;19.32;100.00
4044;BME280;2036;51.578;7.108;2022-07-29T10:48:29;100837.66;;;19.29;100.00
4044;BME280;2036;51.578;7.108;2022-07-29T10:51:03;100843.13;;;19.27;100.00
4044;BME280;2036;51.578;7.108;2022-07-29T10:53:56;100849.31;;;19.36;100.00
4044;BME280;2036;51.578;7.108;2022-07-29T10:56:32;100851.13;;;19.19;100.00
4044;BME280;2036;51.578;7.108;2022-07-29T11:01:47;100838.16;;;19.40;100.00
4044;BME280;2036;51.578;7.108;2022-07-29T11:04:13;100851.63;;;19.47;100.00
4044;BME280;2036;51.578;7.108;2022-07-29T11:09:24;100862.59;;;19.68;100.00
4044;BME280;2036;51.578;7.108;2022-07-29T11:11:50;100857.09;;;19.53;100.00
4044;BME280;2036;51.578;7.108;2022-07-29T11:14:15;100855.28;;;19.46;100.00
4044;BME280;2036;51.578;7.108;2022-07-29T11:17:01;100848.13;;;19.54;100.00
4044;BME280;2036;51.578;7.108;2022-07-29T11:19:28;100849.44;;;19.50;100.00
4044;BME280;2036;51.578;7.108;2022-07-29T11:21:54;100855.09;;;19.63;100.00
4044;BME280;2036;51.578;7.108;2022-07-29T11:24:22;100856.75;;;19.81;100.00
4044;BME280;2036;51.578;7.108;2022-07-29T11:32:14;100852.00;;;20.54;100.00
4044;BME280;2036;51.578;7.108;2022-07-29T11:34:41;100858.13;;;20.85;100.00
4044;BME280;2036;51.578;7.108;2022-07-29T11:44:59;100848.53;;;23.94;100.00
4044;BME280;2036;51.578;7.108;2022-07-29T11:47:33;100855.47;;;24.64;100.00
4044;BME280;2036;51.578;7.108;2022-07-29T11:50:01;100848.59;;;25.08;100.00
4044;BME280;2036;51.578;7.108;2022-07-29T11:52:40;100844.03;;;24.96;100.00
4044;BME280;2036;51.578;7.108;2022-07-29T11:55:14;100841.53;;;24.88;100.00
4044;BME280;2036;51.578;7.108;2022-07-29T12:02:55;100834.19;;;25.55;100.00
4044;BME280;2036;51.578;7.108;2022-07-29T12:05:25;100829.38;;;25.70;100.00
4044;BME280;2036;51.578;7.108;2022-07-29T12:07:58;100843.44;;;25.40;98.78
4044;BME280;2036;51.578;7.108;2022-07-29T12:10:32;100835.63;;;25.51;98.83
4044;BME280;2036;51.578;7.108;2022-07-29T12:12:58;100843.25;;;25.74;100.00
4044;BME280;2036;51.578;7.108;2022-07-29T12:15:24;100833.94;;;25.37;99.05
4044;BME280;2036;51.578;7.108;2022-07-29T12:17:51;100842.59;;;25.85;97.86
4044;BME280;2036;51.578;7.108;2022-07-29T12:20:29;100840.44;;;26.77;99.53
4044;BME280;2036;51.578;7.108;2022-07-29T12:22:55;100843.34;;;27.38;96.92
4044;BME280;2036;51.578;7.108;2022-07-29T12:25:23;100845.66;;;28.02;96.55
4044;BME280;2036;51.578;7.108;2022-07-29T12:28:06;100843.94;;;28.85;100.00
4044;BME280;2036;51.578;7.108;2022-07-29T12:30:51;100835.06;;;29.49;90.76
4044;BME280;2036;51.578;7.108;2022-07-29T12:33:28;100840.72;;;29.71;79.73
4044;BME280;2036;51.578;7.108;2022-07-29T12:35:59;100842.19;;;30.25;70.83
4044;BME280;2036;51.578;7.108;2022-07-29T12:38:25;100843.84;;;30.26;69.27
4044;BME280;2036;51.578;7.108;2022-07-29T12:40:53;100843.88;;;30.82;69.12
4044;BME280;2036;51.578;7.108;2022-07-29T12:43:22;100834.75;;;31.17;85.02
4044;BME280;2036;51.578;7.108;2022-07-29T12:45:54;100838.84;;;31.19;71.42
4044;BME280;2036;51.578;7.108;2022-07-29T12:48:38;100837.16;;;30.57;62.29
4044;BME280;2036;51.578;7.108;2022-07-29T12:51:06;100839.09;;;30.44;63.67
4044;BME280;2036;51.578;7.108;2022-07-29T12:53:33;100844.69;;;30.15;67.71
4044;BME280;2036;51.578;7.108;2022-07-29T12:56:00;100844.34;;;30.11;70.08
4044;BME280;2036;51.578;7.108;2022-07-29T13:03:57;100836.00;;;29.55;67.06
4044;BME280;2036;51.578;7.108;2022-07-29T13:06:45;100836.72;;;29.09;74.88
4044;BME280;2036;51.578;7.108;2022-07-29T13:09:20;100842.50;;;29.01;77.23
4044;BME280;2036;51.578;7.108;2022-07-29T13:11:53;100841.09;;;28.51;65.59
4044;BME280;2036;51.578;7.108;2022-07-29T13:14:38;100839.16;;;27.85;67.11
4044;BME280;2036;51.578;7.108;2022-07-29T13:19:53;100853.13;;;28.18;74.97
4044;BME280;2036;51.578;7.108;2022-07-29T13:22:22;100850.44;;;28.18;71.27
4044;BME280;2036;51.578;7.108;2022-07-29T13:24:55;100850.34;;;28.25;74.62
4044;BME280;2036;51.578;7.108;2022-07-29T13:27:25;100845.53;;;28.27;72.97
4044;BME280;2036;51.578;7.108;2022-07-29T13:29:52;100845.06;;;28.48;80.85
4044;BME280;2036;51.578;7.108;2022-07-29T13:32:20;100843.06;;;28.43;72.90
4044;BME280;2036;51.578;7.108;2022-07-29T13:34:46;100850.94;;;28.45;77.47
4044;BME280;2036;51.578;7.108;2022-07-29T13:37:12;100848.16;;;28.33;68.94
4044;BME280;2036;51.578;7.108;2022-07-29T13:39:38;100846.81;;;28.24;72.77
4044;BME280;2036;51.578;7.108;2022-07-29T13:42:06;100852.44;;;28.41;76.23
4044;BME280;2036;51.578;7.108;2022-07-29T13:44:32;100841.84;;;28.58;71.67
4044;BME280;2036;51.578;7.108;2022-07-29T13:46:58;100841.47;;;28.72;73.83
4044;BME280;2036;51.578;7.108;2022-07-29T13:49:25;100834.13;;;28.91;73.92
4044;BME280;2036;51.578;7.108;2022-07-29T13:51:51;100837.81;;;29.08;76.39
4044;BME280;2036;51.578;7.108;2022-07-29T13:54:17;100827.75;;;29.38;76.40
4044;BME280;2036;51.578;7.108;2022-07-29T13:56:43;100831.44;;;29.55;75.55
4044;BME280;2036;51.578;7.108;2022-07-29T13:59:09;100829.41;;;29.74;77.03
4044;BME280;2036;51.578;7.108;2022-07-29T14:01:35;100828.94;;;30.00;75.67
4044;BME280;2036;51.578;7.108;2022-07-29T14:04:02;100828.13;;;30.00;65.72